Sylvania, Georgia
Current Conditions -  °F | °C
As of 10:15 PM on Monday 26 Jan 2015 (Local Time) from KJYL Reporting Station
Clear Clear  
Wind Chill: 33°   Ceiling: Unl
Heat Index: 40°   Visibility: 10mi
Dew Point: 32°   Wind: 12mph
Humidity: 73%   Direction: 300°WNW
Pressure: 29.88"   Gusts: NA
Location:  32.75°N, 81.64°W
Report Text: KJYL 270315Z AUTO 30010KT 10SM CLR 05/00 A2988 RMK AO2 T00460001
Loading
Personal Weather Stations






























Interactive Weather Map New forecast layout! Learn more

10-Day Weather Forecast

Advertisements
Track Severe Weather on mobile